sensor_id;sensor_type;location;lat;lon;timestamp;pressure;altitude;pressure_sealevel;temperature;humidity
36788;BME280;22738;45.560;9.434;2022-08-21T00:00:44;99466.59;;;23.49;100.00
36788;BME280;22738;45.560;9.434;2022-08-21T00:07:26;99460.44;;;23.42;100.00
36788;BME280;22738;45.560;9.434;2022-08-21T00:14:08;99465.19;;;23.32;100.00
36788;BME280;22738;45.560;9.434;2022-08-21T00:20:50;99443.97;;;23.25;100.00
36788;BME280;22738;45.560;9.434;2022-08-21T00:27:31;99441.94;;;23.27;100.00
36788;BME280;22738;45.560;9.434;2022-08-21T00:34:13;99447.19;;;23.21;100.00
36788;BME280;22738;45.560;9.434;2022-08-21T00:40:58;99450.31;;;23.10;100.00
36788;BME280;22738;45.560;9.434;2022-08-21T00:47:39;99459.38;;;23.01;100.00
36788;BME280;22738;45.560;9.434;2022-08-21T00:54:24;99458.00;;;23.05;100.00
36788;BME280;22738;45.560;9.434;2022-08-21T01:01:07;99453.06;;;23.02;100.00
36788;BME280;22738;45.560;9.434;2022-08-21T01:07:48;99463.13;;;22.92;100.00
36788;BME280;22738;45.560;9.434;2022-08-21T01:14:29;99456.03;;;22.78;100.00
36788;BME280;22738;45.560;9.434;2022-08-21T01:21:23;99453.47;;;22.69;100.00
36788;BME280;22738;45.560;9.434;2022-08-21T01:28:11;99449.50;;;22.74;100.00
36788;BME280;22738;45.560;9.434;2022-08-21T01:34:53;99454.38;;;22.77;100.00
36788;BME280;22738;45.560;9.434;2022-08-21T01:41:34;99443.94;;;22.68;100.00
36788;BME280;22738;45.560;9.434;2022-08-21T01:48:15;99440.38;;;22.61;100.00
36788;BME280;22738;45.560;9.434;2022-08-21T01:54:56;99441.09;;;22.55;100.00
36788;BME280;22738;45.560;9.434;2022-08-21T02:01:37;99437.00;;;22.38;100.00
36788;BME280;22738;45.560;9.434;2022-08-21T02:08:20;99446.94;;;22.36;100.00
36788;BME280;22738;45.560;9.434;2022-08-21T02:15:05;99431.25;;;22.20;100.00
36788;BME280;22738;45.560;9.434;2022-08-21T02:21:46;99428.34;;;22.15;100.00
36788;BME280;22738;45.560;9.434;2022-08-21T02:28:27;99421.06;;;22.17;100.00
36788;BME280;22738;45.560;9.434;2022-08-21T02:35:09;99418.16;;;22.12;100.00
36788;BME280;22738;45.560;9.434;2022-08-21T02:41:50;99412.88;;;22.12;100.00
36788;BME280;22738;45.560;9.434;2022-08-21T02:48:32;99420.88;;;22.04;100.00
36788;BME280;22738;45.560;9.434;2022-08-21T02:55:13;99418.50;;;22.09;100.00
36788;BME280;22738;45.560;9.434;2022-08-21T03:01:54;99411.59;;;22.08;100.00
36788;BME280;22738;45.560;9.434;2022-08-21T03:08:37;99410.84;;;21.99;100.00
36788;BME280;22738;45.560;9.434;2022-08-21T03:15:21;99418.16;;;22.12;100.00
36788;BME280;22738;45.560;9.434;2022-08-21T03:22:04;99424.53;;;22.03;100.00
36788;BME280;22738;45.560;9.434;2022-08-21T03:28:46;99425.97;;;21.91;100.00
36788;BME280;22738;45.560;9.434;2022-08-21T03:35:27;99428.31;;;21.86;100.00
36788;BME280;22738;45.560;9.434;2022-08-21T03:42:08;99415.19;;;21.78;100.00
36788;BME280;22738;45.560;9.434;2022-08-21T03:48:50;99405.69;;;21.69;100.00
36788;BME280;22738;45.560;9.434;2022-08-21T03:55:31;99408.38;;;21.61;100.00
36788;BME280;22738;45.560;9.434;2022-08-21T04:02:13;99411.47;;;21.50;100.00
36788;BME280;22738;45.560;9.434;2022-08-21T04:08:57;99418.13;;;21.38;100.00
36788;BME280;22738;45.560;9.434;2022-08-21T04:15:38;99419.56;;;21.25;100.00
36788;BME280;22738;45.560;9.434;2022-08-21T04:22:20;99417.34;;;21.14;100.00
36788;BME280;22738;45.560;9.434;2022-08-21T04:29:02;99419.75;;;20.93;100.00
36788;BME280;22738;45.560;9.434;2022-08-21T04:35:43;99424.41;;;20.83;100.00
36788;BME280;22738;45.560;9.434;2022-08-21T04:42:26;99420.34;;;20.42;100.00
36788;BME280;22738;45.560;9.434;2022-08-21T04:49:09;99423.50;;;20.68;100.00
36788;BME280;22738;45.560;9.434;2022-08-21T04:55:51;99436.59;;;20.84;100.00
36788;BME280;22738;45.560;9.434;2022-08-21T05:02:33;99430.28;;;20.93;100.00
36788;BME280;22738;45.560;9.434;2022-08-21T05:09:16;99441.75;;;21.08;100.00
36788;BME280;22738;45.560;9.434;2022-08-21T05:15:58;99452.38;;;21.23;100.00
36788;BME280;22738;45.560;9.434;2022-08-21T05:22:39;99449.09;;;21.44;100.00
36788;BME280;22738;45.560;9.434;2022-08-21T05:29:21;99444.16;;;21.63;100.00
36788;BME280;22738;45.560;9.434;2022-08-21T05:36:02;99465.94;;;21.80;100.00
36788;BME280;22738;45.560;9.434;2022-08-21T05:42:44;99473.38;;;21.99;100.00
36788;BME280;22738;45.560;9.434;2022-08-21T05:49:25;99473.16;;;22.23;100.00
36788;BME280;22738;45.560;9.434;2022-08-21T05:56:06;99482.06;;;22.51;100.00
36788;BME280;22738;45.560;9.434;2022-08-21T06:02:47;99480.81;;;22.77;100.00
36788;BME280;22738;45.560;9.434;2022-08-21T06:09:29;99482.50;;;23.13;100.00
36788;BME280;22738;45.560;9.434;2022-08-21T06:16:14;99488.41;;;23.72;100.00
36788;BME280;22738;45.560;9.434;2022-08-21T06:22:55;99481.28;;;26.36;100.00
36788;BME280;22738;45.560;9.434;2022-08-21T06:29:36;99480.69;;;29.13;97.30
36788;BME280;22738;45.560;9.434;2022-08-21T06:36:19;99485.47;;;31.15;81.83
36788;BME280;22738;45.560;9.434;2022-08-21T06:43:10;99487.69;;;32.84;64.90
36788;BME280;22738;45.560;9.434;2022-08-21T06:49:51;99493.34;;;34.21;57.75
36788;BME280;22738;45.560;9.434;2022-08-21T06:56:32;99485.81;;;35.92;49.94
36788;BME280;22738;45.560;9.434;2022-08-21T07:03:18;99496.47;;;37.75;42.14
36788;BME280;22738;45.560;9.434;2022-08-21T07:09:59;99487.63;;;38.27;37.42
36788;BME280;22738;45.560;9.434;2022-08-21T07:16:42;99488.34;;;39.60;33.98
36788;BME280;22738;45.560;9.434;2022-08-21T07:23:26;99488.75;;;40.31;34.05
36788;BME280;22738;45.560;9.434;2022-08-21T07:30:09;99489.50;;;41.27;31.91
36788;BME280;22738;45.560;9.434;2022-08-21T07:36:50;99486.44;;;40.93;32.82
36788;BME280;22738;45.560;9.434;2022-08-21T07:43:31;99480.16;;;41.42;31.83
36788;BME280;22738;45.560;9.434;2022-08-21T07:50:12;99489.53;;;41.71;29.02
36788;BME280;22738;45.560;9.434;2022-08-21T07:56:54;99476.00;;;39.49;32.79
36788;BME280;22738;45.560;9.434;2022-08-21T08:03:36;99472.34;;;39.40;33.77
36788;BME280;22738;45.560;9.434;2022-08-21T08:10:18;99469.75;;;37.64;36.51
36788;BME280;22738;45.560;9.434;2022-08-21T08:16:59;99467.94;;;36.36;38.77
36788;BME280;22738;45.560;9.434;2022-08-21T08:23:43;99461.28;;;35.94;43.57
36788;BME280;22738;45.560;9.434;2022-08-21T08:30:25;99452.91;;;35.50;43.53
36788;BME280;22738;45.560;9.434;2022-08-21T08:37:08;99438.31;;;35.41;43.57
36788;BME280;22738;45.560;9.434;2022-08-21T08:43:53;99435.84;;;35.09;42.44
36788;BME280;22738;45.560;9.434;2022-08-21T08:50:45;99423.41;;;34.98;44.59
36788;BME280;22738;45.560;9.434;2022-08-21T08:57:28;99429.63;;;35.03;42.79
36788;BME280;22738;45.560;9.434;2022-08-21T09:04:10;99422.00;;;34.75;45.49
36788;BME280;22738;45.560;9.434;2022-08-21T09:24:49;99417.97;;;34.21;43.33
36788;BME280;22738;45.560;9.434;2022-08-21T09:31:35;99415.63;;;34.39;44.00
36788;BME280;22738;45.560;9.434;2022-08-21T09:38:30;99420.75;;;34.36;46.95
36788;BME280;22738;45.560;9.434;2022-08-21T09:45:17;99410.00;;;33.99;44.99
36788;BME280;22738;45.560;9.434;2022-08-21T09:51:59;99408.19;;;34.05;42.77
36788;BME280;22738;45.560;9.434;2022-08-21T09:58:45;99403.69;;;33.78;43.78
36788;BME280;22738;45.560;9.434;2022-08-21T10:05:27;99408.06;;;33.85;42.81
36788;BME280;22738;45.560;9.434;2022-08-21T10:12:22;99408.06;;;33.85;45.20
36788;BME280;22738;45.560;9.434;2022-08-21T10:19:11;99401.22;;;33.72;43.00
36788;BME280;22738;45.560;9.434;2022-08-21T10:33:03;99398.53;;;33.72;46.51
36788;BME280;22738;45.560;9.434;2022-08-21T10:47:08;99377.59;;;33.79;47.15
36788;BME280;22738;45.560;9.434;2022-08-21T11:00:55;99367.22;;;33.56;44.67
36788;BME280;22738;45.560;9.434;2022-08-21T11:08:48;99353.22;;;33.54;45.88
36788;BME280;22738;45.560;9.434;2022-08-21T11:22:23;99341.53;;;32.80;48.36
36788;BME280;22738;45.560;9.434;2022-08-21T11:29:20;99345.78;;;32.76;44.92
36788;BME280;22738;45.560;9.434;2022-08-21T11:57:03;99307.81;;;31.97;45.97
36788;BME280;22738;45.560;9.434;2022-08-21T12:04:00;99307.53;;;31.77;48.64
36788;BME280;22738;45.560;9.434;2022-08-21T12:24:40;99288.56;;;32.00;44.68
36788;BME280;22738;45.560;9.434;2022-08-21T12:31:25;99280.50;;;32.00;45.43
36788;BME280;22738;45.560;9.434;2022-08-21T12:38:12;99268.25;;;31.88;47.19
36788;BME280;22738;45.560;9.434;2022-08-21T12:45:00;99258.31;;;32.05;47.06
36788;BME280;22738;45.560;9.434;2022-08-21T12:58:57;99251.03;;;31.62;46.34
36788;BME280;22738;45.560;9.434;2022-08-21T13:05:40;99238.13;;;31.59;46.36
36788;BME280;22738;45.560;9.434;2022-08-21T13:12:22;99231.38;;;31.78;45.99
36788;BME280;22738;45.560;9.434;2022-08-21T13:19:06;99220.72;;;31.83;50.90
36788;BME280;22738;45.560;9.434;2022-08-21T13:25:48;99209.22;;;32.04;43.12
36788;BME280;22738;45.560;9.434;2022-08-21T13:32:30;99217.69;;;31.96;44.34
36788;BME280;22738;45.560;9.434;2022-08-21T13:39:17;99207.44;;;31.93;44.54
36788;BME280;22738;45.560;9.434;2022-08-21T13:46:00;99199.91;;;31.90;41.11
36788;BME280;22738;45.560;9.434;2022-08-21T13:53:02;99200.34;;;31.82;41.59
36788;BME280;22738;45.560;9.434;2022-08-21T13:59:43;99187.47;;;32.01;41.58
36788;BME280;22738;45.560;9.434;2022-08-21T14:06:27;99185.56;;;32.01;38.33
36788;BME280;22738;45.560;9.434;2022-08-21T14:13:28;99171.72;;;32.09;39.21
36788;BME280;22738;45.560;9.434;2022-08-21T14:27:07;99169.47;;;32.01;36.22
36788;BME280;22738;45.560;9.434;2022-08-21T14:33:48;99162.75;;;32.25;39.42
36788;BME280;22738;45.560;9.434;2022-08-21T14:40:33;99160.50;;;32.17;40.03
36788;BME280;22738;45.560;9.434;2022-08-21T14:47:14;99151.38;;;32.13;39.29
36788;BME280;22738;45.560;9.434;2022-08-21T14:53:55;99146.56;;;32.15;41.51
36788;BME280;22738;45.560;9.434;2022-08-21T15:00:36;99133.06;;;32.05;40.18
36788;BME280;22738;45.560;9.434;2022-08-21T15:07:17;99124.47;;;32.08;40.55
36788;BME280;22738;45.560;9.434;2022-08-21T15:14:00;99123.72;;;32.13;39.16
36788;BME280;22738;45.560;9.434;2022-08-21T15:20:42;99130.44;;;32.15;41.50
36788;BME280;22738;45.560;9.434;2022-08-21T15:27:23;99128.03;;;32.14;40.83
36788;BME280;22738;45.560;9.434;2022-08-21T15:34:04;99123.38;;;32.04;40.84
36788;BME280;22738;45.560;9.434;2022-08-21T15:40:45;99119.72;;;32.15;40.91
36788;BME280;22738;45.560;9.434;2022-08-21T15:47:33;99114.78;;;32.02;42.16
36788;BME280;22738;45.560;9.434;2022-08-21T15:54:14;99105.63;;;31.98;40.39
36788;BME280;22738;45.560;9.434;2022-08-21T16:00:58;99101.31;;;31.97;41.23
36788;BME280;22738;45.560;9.434;2022-08-21T16:07:40;99094.81;;;31.93;41.06
36788;BME280;22738;45.560;9.434;2022-08-21T16:14:21;99094.75;;;31.88;41.82
36788;BME280;22738;45.560;9.434;2022-08-21T16:21:02;99084.88;;;31.67;41.33
36788;BME280;22738;45.560;9.434;2022-08-21T16:27:47;99073.56;;;31.60;41.82
36788;BME280;22738;45.560;9.434;2022-08-21T16:34:31;99076.22;;;31.55;42.91
36788;BME280;22738;45.560;9.434;2022-08-21T16:41:15;99082.91;;;31.36;42.60
36788;BME280;22738;45.560;9.434;2022-08-21T16:47:57;99072.19;;;31.36;43.49
36788;BME280;22738;45.560;9.434;2022-08-21T16:54:39;99066.22;;;31.29;46.01
36788;BME280;22738;45.560;9.434;2022-08-21T17:01:27;99074.69;;;31.21;45.01
36788;BME280;22738;45.560;9.434;2022-08-21T17:08:08;99069.53;;;31.14;44.46
36788;BME280;22738;45.560;9.434;2022-08-21T17:14:51;99074.94;;;30.97;44.28
36788;BME280;22738;45.560;9.434;2022-08-21T17:21:32;99081.78;;;30.88;45.74
36788;BME280;22738;45.560;9.434;2022-08-21T17:28:16;99077.31;;;30.77;45.52
36788;BME280;22738;45.560;9.434;2022-08-21T17:34:59;99077.66;;;30.64;46.38
36788;BME280;22738;45.560;9.434;2022-08-21T17:41:40;99071.75;;;30.46;49.27
36788;BME280;22738;45.560;9.434;2022-08-21T17:48:21;99071.50;;;30.14;51.69
36788;BME280;22738;45.560;9.434;2022-08-21T17:55:04;99065.94;;;29.87;54.95
36788;BME280;22738;45.560;9.434;2022-08-21T18:01:45;99074.13;;;29.69;56.30
36788;BME280;22738;45.560;9.434;2022-08-21T18:08:27;99075.44;;;29.38;63.52
36788;BME280;22738;45.560;9.434;2022-08-21T18:15:11;99078.41;;;28.90;80.80
36788;BME280;22738;45.560;9.434;2022-08-21T18:21:54;99079.78;;;28.47;87.78
36788;BME280;22738;45.560;9.434;2022-08-21T18:28:36;99085.63;;;28.02;100.00
36788;BME280;22738;45.560;9.434;2022-08-21T18:35:19;99092.22;;;27.70;100.00
36788;BME280;22738;45.560;9.434;2022-08-21T18:42:02;99092.69;;;27.49;100.00
36788;BME280;22738;45.560;9.434;2022-08-21T18:48:43;99099.34;;;27.22;100.00
36788;BME280;22738;45.560;9.434;2022-08-21T18:55:25;99107.63;;;26.96;100.00
36788;BME280;22738;45.560;9.434;2022-08-21T19:02:07;99108.50;;;26.65;100.00
36788;BME280;22738;45.560;9.434;2022-08-21T19:08:48;99123.44;;;26.41;100.00
36788;BME280;22738;45.560;9.434;2022-08-21T19:15:30;99124.34;;;26.29;100.00
36788;BME280;22738;45.560;9.434;2022-08-21T19:22:13;99122.50;;;25.98;100.00
36788;BME280;22738;45.560;9.434;2022-08-21T19:28:57;99134.16;;;25.90;100.00
36788;BME280;22738;45.560;9.434;2022-08-21T19:35:41;99150.22;;;25.71;100.00
36788;BME280;22738;45.560;9.434;2022-08-21T19:42:23;99152.09;;;25.64;100.00
36788;BME280;22738;45.560;9.434;2022-08-21T19:49:06;99155.81;;;25.49;100.00
36788;BME280;22738;45.560;9.434;2022-08-21T19:55:48;99167.88;;;25.39;100.00
36788;BME280;22738;45.560;9.434;2022-08-21T20:02:29;99168.28;;;25.36;100.00
36788;BME280;22738;45.560;9.434;2022-08-21T20:09:10;99183.19;;;25.43;100.00
36788;BME280;22738;45.560;9.434;2022-08-21T20:15:54;99183.63;;;25.27;100.00
36788;BME280;22738;45.560;9.434;2022-08-21T20:22:35;99187.72;;;25.10;100.00
36788;BME280;22738;45.560;9.434;2022-08-21T20:29:18;99194.69;;;24.98;100.00
36788;BME280;22738;45.560;9.434;2022-08-21T20:36:00;99193.06;;;24.84;100.00
36788;BME280;22738;45.560;9.434;2022-08-21T20:42:50;99202.44;;;24.87;100.00
36788;BME280;22738;45.560;9.434;2022-08-21T20:49:44;99196.91;;;24.95;100.00
36788;BME280;22738;45.560;9.434;2022-08-21T21:03:54;99201.59;;;24.73;100.00
36788;BME280;22738;45.560;9.434;2022-08-21T21:11:21;99206.72;;;24.81;100.00
36788;BME280;22738;45.560;9.434;2022-08-21T21:31:56;99206.47;;;24.69;100.00
36788;BME280;22738;45.560;9.434;2022-08-21T21:38:43;99199.94;;;24.52;100.00
36788;BME280;22738;45.560;9.434;2022-08-21T21:52:38;99198.28;;;24.32;100.00
36788;BME280;22738;45.560;9.434;2022-08-21T22:00:31;99199.25;;;24.18;100.00
36788;BME280;22738;45.560;9.434;2022-08-21T22:13:47;99194.72;;;24.05;100.00
36788;BME280;22738;45.560;9.434;2022-08-21T22:20:38;99194.91;;;24.03;100.00
36788;BME280;22738;45.560;9.434;2022-08-21T22:27:28;99203.34;;;24.14;100.00
36788;BME280;22738;45.560;9.434;2022-08-21T22:34:16;99206.38;;;24.17;100.00
36788;BME280;22738;45.560;9.434;2022-08-21T22:41:24;99221.25;;;24.12;100.00
36788;BME280;22738;45.560;9.434;2022-08-21T22:48:06;99212.50;;;24.11;100.00
36788;BME280;22738;45.560;9.434;2022-08-21T22:54:52;99215.75;;;24.06;100.00
36788;BME280;22738;45.560;9.434;2022-08-21T23:01:41;99215.34;;;24.09;100.00
36788;BME280;22738;45.560;9.434;2022-08-21T23:08:36;99226.50;;;24.05;100.00
36788;BME280;22738;45.560;9.434;2022-08-21T23:15:18;99222.41;;;23.96;100.00
36788;BME280;22738;45.560;9.434;2022-08-21T23:29:24;99229.03;;;23.79;100.00
36788;BME280;22738;45.560;9.434;2022-08-21T23:36:21;99221.31;;;23.77;100.00
36788;BME280;22738;45.560;9.434;2022-08-21T23:44:19;99223.31;;;23.69;100.00
36788;BME280;22738;45.560;9.434;2022-08-21T23:50:33;99206.41;;;23.70;100.00
